sensor_id;sensor_type;location;lat;lon;timestamp;pressure;altitude;pressure_sealevel;temperature;humidity
51289;BME280;37372;52.294;5.152;2023-03-13T00:01:42;100094.75;;;7.95;86.31
51289;BME280;37372;52.294;5.152;2023-03-13T00:04:10;100091.53;;;7.98;86.85
51289;BME280;37372;52.294;5.152;2023-03-13T00:06:38;100083.81;;;7.95;86.55
51289;BME280;37372;52.294;5.152;2023-03-13T00:09:08;100073.13;;;7.93;86.53
51289;BME280;37372;52.294;5.152;2023-03-13T00:11:34;100081.53;;;7.92;87.06
51289;BME280;37372;52.294;5.152;2023-03-13T00:14:04;100076.44;;;7.95;86.78
51289;BME280;37372;52.294;5.152;2023-03-13T00:16:36;100072.78;;;8.01;86.64
51289;BME280;37372;52.294;5.152;2023-03-13T00:19:05;100067.78;;;7.98;86.68
51289;BME280;37372;52.294;5.152;2023-03-13T00:21:30;100058.31;;;8.01;86.66
51289;BME280;37372;52.294;5.152;2023-03-13T00:23:58;100053.69;;;8.01;86.80
51289;BME280;37372;52.294;5.152;2023-03-13T00:26:32;100051.91;;;8.07;86.63
51289;BME280;37372;52.294;5.152;2023-03-13T00:28:59;100039.31;;;8.06;86.99
51289;BME280;37372;52.294;5.152;2023-03-13T00:31:31;100028.25;;;8.01;87.05
51289;BME280;37372;52.294;5.152;2023-03-13T00:34:01;100020.66;;;8.03;87.09
51289;BME280;37372;52.294;5.152;2023-03-13T00:36:34;100001.19;;;7.99;87.47
51289;BME280;37372;52.294;5.152;2023-03-13T00:39:01;99999.28;;;8.00;88.19
51289;BME280;37372;52.294;5.152;2023-03-13T00:41:36;99998.81;;;8.03;88.03
51289;BME280;37372;52.294;5.152;2023-03-13T00:44:14;99987.28;;;8.01;88.53
51289;BME280;37372;52.294;5.152;2023-03-13T00:46:40;99983.13;;;7.98;88.65
51289;BME280;37372;52.294;5.152;2023-03-13T00:49:18;99968.63;;;7.98;88.78
51289;BME280;37372;52.294;5.152;2023-03-13T00:51:43;99970.22;;;8.05;88.74
51289;BME280;37372;52.294;5.152;2023-03-13T00:54:13;99951.78;;;8.01;88.50
51289;BME280;37372;52.294;5.152;2023-03-13T00:56:49;99938.72;;;8.03;89.05
51289;BME280;37372;52.294;5.152;2023-03-13T00:59:14;99941.00;;;8.06;89.00
51289;BME280;37372;52.294;5.152;2023-03-13T01:01:43;99934.59;;;8.12;89.07
51289;BME280;37372;52.294;5.152;2023-03-13T01:04:17;99926.25;;;8.07;89.02
51289;BME280;37372;52.294;5.152;2023-03-13T01:06:45;99929.72;;;8.14;89.05
51289;BME280;37372;52.294;5.152;2023-03-13T01:09:16;99920.94;;;8.12;89.36
51289;BME280;37372;52.294;5.152;2023-03-13T01:11:44;99910.47;;;8.21;88.95
51289;BME280;37372;52.294;5.152;2023-03-13T01:14:17;99917.94;;;8.13;89.44
51289;BME280;37372;52.294;5.152;2023-03-13T01:16:43;99901.31;;;8.27;89.28
51289;BME280;37372;52.294;5.152;2023-03-13T01:19:12;99899.28;;;8.22;89.38
51289;BME280;37372;52.294;5.152;2023-03-13T01:21:51;99883.38;;;8.19;89.47
51289;BME280;37372;52.294;5.152;2023-03-13T01:24:20;99870.81;;;8.18;90.00
51289;BME280;37372;52.294;5.152;2023-03-13T01:26:47;99868.41;;;8.22;89.89
51289;BME280;37372;52.294;5.152;2023-03-13T01:29:20;99861.28;;;8.32;89.87
51289;BME280;37372;52.294;5.152;2023-03-13T01:31:45;99838.47;;;8.27;89.57
51289;BME280;37372;52.294;5.152;2023-03-13T01:34:22;99839.41;;;8.32;89.63
51289;BME280;37372;52.294;5.152;2023-03-13T01:36:47;99840.00;;;8.34;89.88
51289;BME280;37372;52.294;5.152;2023-03-13T01:39:22;99831.38;;;8.37;89.80
51289;BME280;37372;52.294;5.152;2023-03-13T01:41:47;99832.19;;;8.38;89.65
51289;BME280;37372;52.294;5.152;2023-03-13T01:44:53;99826.94;;;8.36;89.69
51289;BME280;37372;52.294;5.152;2023-03-13T01:47:20;99820.28;;;8.44;90.32
51289;BME280;37372;52.294;5.152;2023-03-13T01:49:52;99814.22;;;8.42;89.84
51289;BME280;37372;52.294;5.152;2023-03-13T01:52:28;99806.84;;;8.43;90.27
51289;BME280;37372;52.294;5.152;2023-03-13T01:55:08;99797.69;;;8.49;89.98
51289;BME280;37372;52.294;5.152;2023-03-13T01:57:46;99784.47;;;8.57;89.79
51289;BME280;37372;52.294;5.152;2023-03-13T02:00:22;99776.44;;;8.67;89.92
51289;BME280;37372;52.294;5.152;2023-03-13T02:02:53;99788.81;;;8.70;90.15
51289;BME280;37372;52.294;5.152;2023-03-13T02:05:25;99770.00;;;8.74;90.18
51289;BME280;37372;52.294;5.152;2023-03-13T02:07:56;99749.56;;;8.76;90.16
51289;BME280;37372;52.294;5.152;2023-03-13T02:10:26;99751.69;;;8.74;90.37
51289;BME280;37372;52.294;5.152;2023-03-13T02:12:52;99743.25;;;8.76;90.25
51289;BME280;37372;52.294;5.152;2023-03-13T02:15:20;99746.69;;;8.83;90.32
51289;BME280;37372;52.294;5.152;2023-03-13T02:17:48;99736.06;;;8.86;90.32
51289;BME280;37372;52.294;5.152;2023-03-13T02:20:18;99714.19;;;8.86;90.43
51289;BME280;37372;52.294;5.152;2023-03-13T02:28:00;99715.34;;;8.90;90.30
51289;BME280;37372;52.294;5.152;2023-03-13T02:30:28;99700.59;;;8.91;90.79
51289;BME280;37372;52.294;5.152;2023-03-13T02:33:00;99694.88;;;8.93;90.93
51289;BME280;37372;52.294;5.152;2023-03-13T02:35:32;99690.31;;;8.99;90.67
51289;BME280;37372;52.294;5.152;2023-03-13T02:38:02;99693.44;;;9.07;90.33
51289;BME280;37372;52.294;5.152;2023-03-13T02:40:43;99693.13;;;9.04;90.63
51289;BME280;37372;52.294;5.152;2023-03-13T02:46:45;99677.81;;;9.03;91.19
51289;BME280;37372;52.294;5.152;2023-03-13T02:49:32;99669.47;;;9.14;91.23
51289;BME280;37372;52.294;5.152;2023-03-13T02:52:24;99681.34;;;9.20;90.90
51289;BME280;37372;52.294;5.152;2023-03-13T02:55:09;99685.69;;;9.16;91.12
51289;BME280;37372;52.294;5.152;2023-03-13T02:57:43;99678.28;;;9.16;91.03
51289;BME280;37372;52.294;5.152;2023-03-13T03:00:12;99672.09;;;9.21;90.96
51289;BME280;37372;52.294;5.152;2023-03-13T03:02:46;99687.16;;;9.23;91.43
51289;BME280;37372;52.294;5.152;2023-03-13T03:05:14;99676.84;;;9.31;91.32
51289;BME280;37372;52.294;5.152;2023-03-13T03:07:40;99684.41;;;9.40;91.15
51289;BME280;37372;52.294;5.152;2023-03-13T03:10:06;99682.81;;;9.44;91.33
51289;BME280;37372;52.294;5.152;2023-03-13T03:12:32;99694.41;;;9.52;90.92
51289;BME280;37372;52.294;5.152;2023-03-13T03:15:02;99693.72;;;9.61;90.87
51289;BME280;37372;52.294;5.152;2023-03-13T03:17:29;99674.63;;;9.66;90.97
51289;BME280;37372;52.294;5.152;2023-03-13T03:19:56;99666.53;;;9.76;90.76
51289;BME280;37372;52.294;5.152;2023-03-13T03:22:21;99669.59;;;9.80;90.50
51289;BME280;37372;52.294;5.152;2023-03-13T03:24:47;99671.81;;;9.83;90.38
51289;BME280;37372;52.294;5.152;2023-03-13T03:27:13;99653.22;;;9.85;90.45
51289;BME280;37372;52.294;5.152;2023-03-13T03:29:43;99652.97;;;9.87;90.29
51289;BME280;37372;52.294;5.152;2023-03-13T03:32:08;99647.16;;;9.83;90.30
51289;BME280;37372;52.294;5.152;2023-03-13T03:34:35;99641.56;;;9.95;90.10
51289;BME280;37372;52.294;5.152;2023-03-13T03:37:00;99647.81;;;9.90;90.12
51289;BME280;37372;52.294;5.152;2023-03-13T03:39:26;99632.00;;;9.97;89.78
51289;BME280;37372;52.294;5.152;2023-03-13T03:41:56;99653.41;;;10.00;89.33
51289;BME280;37372;52.294;5.152;2023-03-13T03:44:22;99643.28;;;10.01;89.32
51289;BME280;37372;52.294;5.152;2023-03-13T03:46:52;99643.34;;;10.06;88.98
51289;BME280;37372;52.294;5.152;2023-03-13T03:49:18;99642.56;;;10.11;89.29
51289;BME280;37372;52.294;5.152;2023-03-13T03:51:55;99624.41;;;10.04;89.26
51289;BME280;37372;52.294;5.152;2023-03-13T03:54:20;99625.53;;;10.09;89.33
51289;BME280;37372;52.294;5.152;2023-03-13T03:56:55;99639.25;;;10.09;89.32
51289;BME280;37372;52.294;5.152;2023-03-13T03:59:21;99632.13;;;10.08;89.31
51289;BME280;37372;52.294;5.152;2023-03-13T04:01:58;99624.47;;;10.10;89.88
51289;BME280;37372;52.294;5.152;2023-03-13T04:04:24;99631.09;;;10.14;89.70
51289;BME280;37372;52.294;5.152;2023-03-13T04:07:02;99622.88;;;10.14;89.73
51289;BME280;37372;52.294;5.152;2023-03-13T04:09:28;99620.34;;;10.07;90.05
51289;BME280;37372;52.294;5.152;2023-03-13T04:12:01;99609.66;;;10.11;90.17
51289;BME280;37372;52.294;5.152;2023-03-13T04:14:26;99617.59;;;10.07;90.00
51289;BME280;37372;52.294;5.152;2023-03-13T04:16:58;99613.81;;;10.13;89.92
51289;BME280;37372;52.294;5.152;2023-03-13T04:19:25;99616.28;;;10.15;89.76
51289;BME280;37372;52.294;5.152;2023-03-13T04:21:58;99614.66;;;10.14;89.98
51289;BME280;37372;52.294;5.152;2023-03-13T04:24:23;99601.28;;;10.22;89.78
51289;BME280;37372;52.294;5.152;2023-03-13T04:26:58;99599.78;;;10.10;89.81
51289;BME280;37372;52.294;5.152;2023-03-13T04:29:25;99596.22;;;10.09;89.98
51289;BME280;37372;52.294;5.152;2023-03-13T04:32:02;99605.91;;;10.17;90.22
51289;BME280;37372;52.294;5.152;2023-03-13T04:34:27;99596.22;;;10.09;90.39
51289;BME280;37372;52.294;5.152;2023-03-13T04:37:07;99580.88;;;10.08;90.25
51289;BME280;37372;52.294;5.152;2023-03-13T04:39:33;99600.69;;;10.15;90.45
51289;BME280;37372;52.294;5.152;2023-03-13T04:42:05;99589.72;;;10.15;90.39
51289;BME280;37372;52.294;5.152;2023-03-13T04:44:31;99588.63;;;10.16;90.70
51289;BME280;37372;52.294;5.152;2023-03-13T04:47:04;99591.69;;;10.20;90.31
51289;BME280;37372;52.294;5.152;2023-03-13T04:49:31;99596.34;;;10.19;90.73
51289;BME280;37372;52.294;5.152;2023-03-13T04:52:07;99590.88;;;10.19;90.57
51289;BME280;37372;52.294;5.152;2023-03-13T04:54:32;99589.44;;;10.17;90.93
51289;BME280;37372;52.294;5.152;2023-03-13T04:57:09;99584.03;;;10.22;91.13
51289;BME280;37372;52.294;5.152;2023-03-13T04:59:34;99597.94;;;10.15;90.65
51289;BME280;37372;52.294;5.152;2023-03-13T05:02:13;99586.78;;;10.22;90.68
51289;BME280;37372;52.294;5.152;2023-03-13T05:05:04;99571.50;;;10.26;90.75
51289;BME280;37372;52.294;5.152;2023-03-13T05:07:30;99574.75;;;10.23;91.07
51289;BME280;37372;52.294;5.152;2023-03-13T05:10:07;99573.66;;;10.24;90.60
51289;BME280;37372;52.294;5.152;2023-03-13T05:12:33;99550.41;;;10.26;90.52
51289;BME280;37372;52.294;5.152;2023-03-13T05:15:04;99557.53;;;10.27;90.18
51289;BME280;37372;52.294;5.152;2023-03-13T05:17:37;99556.72;;;10.27;90.28
51289;BME280;37372;52.294;5.152;2023-03-13T05:20:04;99554.56;;;10.34;89.77
51289;BME280;37372;52.294;5.152;2023-03-13T05:22:33;99556.75;;;10.32;89.38
51289;BME280;37372;52.294;5.152;2023-03-13T05:25:00;99563.06;;;10.33;89.68
51289;BME280;37372;52.294;5.152;2023-03-13T05:27:32;99543.34;;;10.36;89.23
51289;BME280;37372;52.294;5.152;2023-03-13T05:29:57;99542.28;;;10.42;89.12
51289;BME280;37372;52.294;5.152;2023-03-13T05:32:29;99533.28;;;10.46;88.80
51289;BME280;37372;52.294;5.152;2023-03-13T05:34:55;99534.66;;;10.44;88.31
51289;BME280;37372;52.294;5.152;2023-03-13T05:37:20;99539.91;;;10.50;87.88
51289;BME280;37372;52.294;5.152;2023-03-13T05:39:46;99536.13;;;10.56;86.91
51289;BME280;37372;52.294;5.152;2023-03-13T05:42:27;99516.88;;;10.51;86.87
51289;BME280;37372;52.294;5.152;2023-03-13T05:44:52;99527.91;;;10.56;86.53
51289;BME280;37372;52.294;5.152;2023-03-13T05:47:24;99523.69;;;10.49;86.70
51289;BME280;37372;52.294;5.152;2023-03-13T05:49:51;99530.31;;;10.53;85.96
51289;BME280;37372;52.294;5.152;2023-03-13T05:52:29;99512.81;;;10.59;85.92
51289;BME280;37372;52.294;5.152;2023-03-13T05:54:54;99510.63;;;10.61;85.47
51289;BME280;37372;52.294;5.152;2023-03-13T05:57:20;99516.94;;;10.62;85.46
51289;BME280;37372;52.294;5.152;2023-03-13T05:59:46;99499.66;;;10.61;85.53
51289;BME280;37372;52.294;5.152;2023-03-13T06:02:30;99506.00;;;10.67;85.16
51289;BME280;37372;52.294;5.152;2023-03-13T06:04:57;99505.50;;;10.75;84.34
51289;BME280;37372;52.294;5.152;2023-03-13T06:07:25;99512.66;;;10.76;83.93
51289;BME280;37372;52.294;5.152;2023-03-13T06:09:51;99517.06;;;10.77;83.80
51289;BME280;37372;52.294;5.152;2023-03-13T06:12:40;99513.19;;;10.73;84.03
51289;BME280;37372;52.294;5.152;2023-03-13T06:15:06;99487.41;;;10.74;83.57
51289;BME280;37372;52.294;5.152;2023-03-13T06:17:34;99498.38;;;10.74;83.14
51289;BME280;37372;52.294;5.152;2023-03-13T06:20:02;99490.72;;;10.76;83.35
51289;BME280;37372;52.294;5.152;2023-03-13T06:22:37;99480.81;;;10.70;83.64
51289;BME280;37372;52.294;5.152;2023-03-13T06:25:03;99506.09;;;10.77;83.19
51289;BME280;37372;52.294;5.152;2023-03-13T06:27:33;99520.09;;;10.80;83.08
51289;BME280;37372;52.294;5.152;2023-03-13T06:29:58;99508.28;;;10.80;82.76
51289;BME280;37372;52.294;5.152;2023-03-13T06:32:39;99523.69;;;10.86;82.66
51289;BME280;37372;52.294;5.152;2023-03-13T06:35:05;99519.03;;;10.87;82.55
51289;BME280;37372;52.294;5.152;2023-03-13T06:37:32;99510.22;;;10.79;83.16
51289;BME280;37372;52.294;5.152;2023-03-13T06:40:00;99502.88;;;10.90;82.65
51289;BME280;37372;52.294;5.152;2023-03-13T06:42:43;99509.19;;;10.91;82.22
51289;BME280;37372;52.294;5.152;2023-03-13T06:45:09;99514.91;;;10.84;82.69
51289;BME280;37372;52.294;5.152;2023-03-13T06:47:35;99518.19;;;10.86;83.01
51289;BME280;37372;52.294;5.152;2023-03-13T06:50:01;99519.31;;;10.85;83.35
51289;BME280;37372;52.294;5.152;2023-03-13T06:52:45;99541.16;;;10.70;84.88
51289;BME280;37372;52.294;5.152;2023-03-13T06:55:13;99530.66;;;10.62;85.91
51289;BME280;37372;52.294;5.152;2023-03-13T06:57:39;99516.38;;;10.60;86.51
51289;BME280;37372;52.294;5.152;2023-03-13T07:00:04;99525.38;;;10.50;86.67
51289;BME280;37372;52.294;5.152;2023-03-13T07:02:51;99537.13;;;10.45;87.45
51289;BME280;37372;52.294;5.152;2023-03-13T07:05:27;99532.47;;;10.46;87.68
51289;BME280;37372;52.294;5.152;2023-03-13T07:07:53;99530.56;;;10.46;87.52
51289;BME280;37372;52.294;5.152;2023-03-13T07:10:18;99545.09;;;10.47;88.05
51289;BME280;37372;52.294;5.152;2023-03-13T07:12:45;99533.59;;;10.50;87.71
51289;BME280;37372;52.294;5.152;2023-03-13T07:15:10;99530.22;;;10.43;88.42
51289;BME280;37372;52.294;5.152;2023-03-13T07:17:48;99543.13;;;10.42;88.44
51289;BME280;37372;52.294;5.152;2023-03-13T07:20:15;99534.59;;;10.39;88.46
51289;BME280;37372;52.294;5.152;2023-03-13T07:22:52;99540.59;;;10.36;88.87
51289;BME280;37372;52.294;5.152;2023-03-13T07:25:18;99538.13;;;10.34;88.88
51289;BME280;37372;52.294;5.152;2023-03-13T07:27:44;99523.94;;;10.42;88.70
51289;BME280;37372;52.294;5.152;2023-03-13T07:30:10;99542.28;;;10.42;88.41
51289;BME280;37372;52.294;5.152;2023-03-13T07:32:48;99543.16;;;10.47;88.28
51289;BME280;37372;52.294;5.152;2023-03-13T07:35:13;99537.84;;;10.36;88.82
51289;BME280;37372;52.294;5.152;2023-03-13T07:37:39;99543.94;;;10.38;89.11
51289;BME280;37372;52.294;5.152;2023-03-13T07:40:05;99545.03;;;10.42;89.10
51289;BME280;37372;52.294;5.152;2023-03-13T07:42:34;99545.63;;;10.44;89.03
51289;BME280;37372;52.294;5.152;2023-03-13T07:45:00;99548.03;;;10.40;89.05
51289;BME280;37372;52.294;5.152;2023-03-13T07:47:45;99545.31;;;10.40;88.97
51289;BME280;37372;52.294;5.152;2023-03-13T07:50:10;99541.41;;;10.36;89.38
51289;BME280;37372;52.294;5.152;2023-03-13T07:52:48;99550.28;;;10.43;88.96
51289;BME280;37372;52.294;5.152;2023-03-13T07:55:20;99547.53;;;10.43;88.39
51289;BME280;37372;52.294;5.152;2023-03-13T07:57:47;99560.16;;;10.49;88.20
51289;BME280;37372;52.294;5.152;2023-03-13T08:00:19;99565.97;;;10.53;88.12
51289;BME280;37372;52.294;5.152;2023-03-13T08:03:18;99566.88;;;10.64;87.51
51289;BME280;37372;52.294;5.152;2023-03-13T08:06:04;99545.00;;;10.74;87.30
51289;BME280;37372;52.294;5.152;2023-03-13T08:08:29;99525.28;;;10.77;86.85
51289;BME280;37372;52.294;5.152;2023-03-13T08:11:17;99508.88;;;10.87;86.50
51289;BME280;37372;52.294;5.152;2023-03-13T08:13:44;99521.88;;;11.02;86.26
51289;BME280;37372;52.294;5.152;2023-03-13T08:16:14;99509.28;;;11.11;85.85
51289;BME280;37372;52.294;5.152;2023-03-13T08:18:52;99504.91;;;11.10;85.63
51289;BME280;37372;52.294;5.152;2023-03-13T08:21:30;99498.59;;;11.09;84.59
51289;BME280;37372;52.294;5.152;2023-03-13T08:24:00;99499.69;;;11.13;84.67
51289;BME280;37372;52.294;5.152;2023-03-13T08:26:29;99499.94;;;11.12;84.55
51289;BME280;37372;52.294;5.152;2023-03-13T08:29:15;99499.13;;;11.11;84.39
51289;BME280;37372;52.294;5.152;2023-03-13T08:31:48;99495.28;;;11.12;84.25
51289;BME280;37372;52.294;5.152;2023-03-13T08:34:16;99497.44;;;11.05;84.07
51289;BME280;37372;52.294;5.152;2023-03-13T08:36:42;99483.50;;;11.12;84.15
51289;BME280;37372;52.294;5.152;2023-03-13T08:39:16;99492.50;;;11.07;83.88
51289;BME280;37372;52.294;5.152;2023-03-13T08:41:45;99507.63;;;11.10;84.01
51289;BME280;37372;52.294;5.152;2023-03-13T08:44:17;99502.97;;;11.10;84.20
51289;BME280;37372;52.294;5.152;2023-03-13T08:46:44;99485.13;;;11.08;84.42
51289;BME280;37372;52.294;5.152;2023-03-13T08:49:10;99490.59;;;11.03;84.84
51289;BME280;37372;52.294;5.152;2023-03-13T08:51:36;99488.66;;;11.03;84.70
51289;BME280;37372;52.294;5.152;2023-03-13T08:54:03;99497.44;;;11.05;84.32
51289;BME280;37372;52.294;5.152;2023-03-13T08:56:30;99491.97;;;11.05;83.64
51289;BME280;37372;52.294;5.152;2023-03-13T08:58:58;99494.19;;;11.08;83.89
51289;BME280;37372;52.294;5.152;2023-03-13T09:01:31;99481.06;;;11.26;81.74
51289;BME280;37372;52.294;5.152;2023-03-13T09:04:07;99481.13;;;11.41;81.62
51289;BME280;37372;52.294;5.152;2023-03-13T09:06:34;99509.19;;;11.58;80.25
51289;BME280;37372;52.294;5.152;2023-03-13T09:09:06;99474.63;;;11.73;79.69
51289;BME280;37372;52.294;5.152;2023-03-13T09:11:35;99465.81;;;11.76;78.78
51289;BME280;37372;52.294;5.152;2023-03-13T09:14:05;99464.50;;;11.83;78.20
51289;BME280;37372;52.294;5.152;2023-03-13T09:16:38;99441.16;;;11.96;77.94
51289;BME280;37372;52.294;5.152;2023-03-13T09:19:08;99441.69;;;12.03;76.29
51289;BME280;37372;52.294;5.152;2023-03-13T09:21:34;99449.41;;;12.06;74.94
51289;BME280;37372;52.294;5.152;2023-03-13T09:24:07;99443.09;;;12.11;74.04
51289;BME280;37372;52.294;5.152;2023-03-13T09:26:36;99470.28;;;12.23;73.39
51289;BME280;37372;52.294;5.152;2023-03-13T09:29:02;99443.88;;;12.22;71.58
51289;BME280;37372;52.294;5.152;2023-03-13T09:31:29;99428.75;;;12.29;72.44
51289;BME280;37372;52.294;5.152;2023-03-13T09:34:22;99449.94;;;12.34;72.80
51289;BME280;37372;52.294;5.152;2023-03-13T09:36:49;99420.50;;;12.50;71.41
51289;BME280;37372;52.294;5.152;2023-03-13T09:39:18;99429.53;;;12.60;71.88
51289;BME280;37372;52.294;5.152;2023-03-13T09:42:00;99424.59;;;12.57;71.40
51289;BME280;37372;52.294;5.152;2023-03-13T09:44:31;99409.75;;;12.58;70.89
51289;BME280;37372;52.294;5.152;2023-03-13T09:47:50;99395.38;;;12.71;70.21
51289;BME280;37372;52.294;5.152;2023-03-13T09:50:34;99403.63;;;12.77;71.05
51289;BME280;37372;52.294;5.152;2023-03-13T09:56:19;99396.22;;;12.72;71.86
51289;BME280;37372;52.294;5.152;2023-03-13T09:59:21;99409.06;;;12.92;71.99
51289;BME280;37372;52.294;5.152;2023-03-13T10:01:49;99384.00;;;12.93;72.02
51289;BME280;37372;52.294;5.152;2023-03-13T10:04:41;99385.59;;;13.10;71.23
51289;BME280;37372;52.294;5.152;2023-03-13T10:07:12;99368.19;;;13.19;71.45
51289;BME280;37372;52.294;5.152;2023-03-13T10:09:42;99364.28;;;13.36;70.41
51289;BME280;37372;52.294;5.152;2023-03-13T10:15:05;99370.75;;;13.55;69.94
51289;BME280;37372;52.294;5.152;2023-03-13T10:17:38;99349.59;;;13.45;69.33
51289;BME280;37372;52.294;5.152;2023-03-13T10:22:41;99353.63;;;13.58;70.18
51289;BME280;37372;52.294;5.152;2023-03-13T10:25:32;99352.53;;;13.59;68.27
51289;BME280;37372;52.294;5.152;2023-03-13T10:28:24;99329.66;;;13.59;69.21
51289;BME280;37372;52.294;5.152;2023-03-13T10:31:09;99341.38;;;13.74;68.12
51289;BME280;37372;52.294;5.152;2023-03-13T10:34:16;99335.75;;;13.85;68.01
51289;BME280;37372;52.294;5.152;2023-03-13T10:36:49;99335.56;;;13.76;67.97
51289;BME280;37372;52.294;5.152;2023-03-13T10:39:21;99344.66;;;13.76;67.87
51289;BME280;37372;52.294;5.152;2023-03-13T10:42:07;99355.78;;;13.66;67.69
51289;BME280;37372;52.294;5.152;2023-03-13T10:44:38;99349.03;;;13.82;67.28
51289;BME280;37372;52.294;5.152;2023-03-13T10:47:12;99351.44;;;13.89;66.08
51289;BME280;37372;52.294;5.152;2023-03-13T10:49:59;99366.66;;;13.87;64.19
51289;BME280;37372;52.294;5.152;2023-03-13T10:55:21;99361.78;;;13.73;66.20
51289;BME280;37372;52.294;5.152;2023-03-13T10:58:32;99361.91;;;13.92;66.05
51289;BME280;37372;52.294;5.152;2023-03-13T11:01:20;99342.53;;;13.97;64.67
51289;BME280;37372;52.294;5.152;2023-03-13T11:03:47;99348.22;;;14.11;63.54
51289;BME280;37372;52.294;5.152;2023-03-13T11:06:23;99339.88;;;14.16;63.50
51289;BME280;37372;52.294;5.152;2023-03-13T11:09:16;99356.25;;;14.07;63.15
51289;BME280;37372;52.294;5.152;2023-03-13T11:11:53;99349.88;;;14.12;63.60
51289;BME280;37372;52.294;5.152;2023-03-13T11:14:31;99347.44;;;14.05;63.72
51289;BME280;37372;52.294;5.152;2023-03-13T11:17:13;99321.69;;;14.15;63.33
51289;BME280;37372;52.294;5.152;2023-03-13T11:22:57;99329.75;;;14.35;61.11
51289;BME280;37372;52.294;5.152;2023-03-13T11:31:36;99335.72;;;14.48;59.08
51289;BME280;37372;52.294;5.152;2023-03-13T11:43:24;99368.44;;;14.30;58.47
51289;BME280;37372;52.294;5.152;2023-03-13T11:46:29;99354.44;;;14.22;58.83
51289;BME280;37372;52.294;5.152;2023-03-13T11:52:15;99337.09;;;14.45;59.87
51289;BME280;37372;52.294;5.152;2023-03-13T12:01:27;99343.00;;;14.33;58.00
51289;BME280;37372;52.294;5.152;2023-03-13T12:03:54;99330.34;;;14.32;58.60
51289;BME280;37372;52.294;5.152;2023-03-13T12:06:32;99348.59;;;14.28;56.50
51289;BME280;37372;52.294;5.152;2023-03-13T12:09:40;99331.97;;;14.33;56.11
51289;BME280;37372;52.294;5.152;2023-03-13T12:12:20;99337.50;;;14.33;54.79
51289;BME280;37372;52.294;5.152;2023-03-13T12:20:51;99309.75;;;14.49;55.55
51289;BME280;37372;52.294;5.152;2023-03-13T12:26:15;99340.22;;;14.39;55.93
51289;BME280;37372;52.294;5.152;2023-03-13T12:28:55;99331.47;;;14.31;56.12
51289;BME280;37372;52.294;5.152;2023-03-13T12:31:33;99325.34;;;14.34;56.44
51289;BME280;37372;52.294;5.152;2023-03-13T12:34:21;99320.03;;;14.43;56.09
51289;BME280;37372;52.294;5.152;2023-03-13T12:37:11;99315.22;;;14.54;56.12
51289;BME280;37372;52.294;5.152;2023-03-13T12:39:48;99296.72;;;14.30;56.83
51289;BME280;37372;52.294;5.152;2023-03-13T12:42:56;99311.25;;;14.12;57.90
51289;BME280;37372;52.294;5.152;2023-03-13T12:45:25;99289.66;;;14.19;58.41
51289;BME280;37372;52.294;5.152;2023-03-13T12:59:31;99283.25;;;14.00;58.87
51289;BME280;37372;52.294;5.152;2023-03-13T13:02:13;99271.59;;;14.08;58.52
51289;BME280;37372;52.294;5.152;2023-03-13T13:04:45;99289.50;;;14.11;57.29
51289;BME280;37372;52.294;5.152;2023-03-13T13:07:26;99262.19;;;14.09;57.16
51289;BME280;37372;52.294;5.152;2023-03-13T13:15:21;99256.16;;;14.07;58.36
51289;BME280;37372;52.294;5.152;2023-03-13T13:17:50;99253.34;;;14.12;58.76
51289;BME280;37372;52.294;5.152;2023-03-13T13:20:45;99240.38;;;14.13;58.32
51289;BME280;37372;52.294;5.152;2023-03-13T13:31:53;99257.72;;;13.89;56.66
51289;BME280;37372;52.294;5.152;2023-03-13T13:39:49;99265.69;;;13.91;55.58
51289;BME280;37372;52.294;5.152;2023-03-13T13:45:02;99256.81;;;13.99;53.36
51289;BME280;37372;52.294;5.152;2023-03-13T13:47:30;99231.63;;;14.05;53.32
51289;BME280;37372;52.294;5.152;2023-03-13T13:49:58;99262.19;;;14.09;54.00
51289;BME280;37372;52.294;5.152;2023-03-13T13:52:37;99225.41;;;14.19;53.48
51289;BME280;37372;52.294;5.152;2023-03-13T13:58:10;99246.06;;;14.21;52.58
51289;BME280;37372;52.294;5.152;2023-03-13T14:00:58;99234.56;;;14.14;52.90
51289;BME280;37372;52.294;5.152;2023-03-13T14:03:27;99241.59;;;14.25;52.96
51289;BME280;37372;52.294;5.152;2023-03-13T14:05:59;99251.72;;;14.11;53.47
51289;BME280;37372;52.294;5.152;2023-03-13T14:09:11;99245.84;;;14.18;54.41
51289;BME280;37372;52.294;5.152;2023-03-13T14:12:45;99246.28;;;14.01;53.87
51289;BME280;37372;52.294;5.152;2023-03-13T14:15:18;99234.41;;;13.76;54.50
51289;BME280;37372;52.294;5.152;2023-03-13T14:17:48;99220.75;;;13.66;54.99
51289;BME280;37372;52.294;5.152;2023-03-13T14:20:33;99242.25;;;13.64;55.13
51289;BME280;37372;52.294;5.152;2023-03-13T14:23:05;99238.31;;;13.46;55.14
51289;BME280;37372;52.294;5.152;2023-03-13T14:25:47;99234.66;;;13.51;54.89
51289;BME280;37372;52.294;5.152;2023-03-13T14:28:22;99224.81;;;13.45;55.12
51289;BME280;37372;52.294;5.152;2023-03-13T14:30:50;99216.06;;;13.38;54.37
51289;BME280;37372;52.294;5.152;2023-03-13T14:33:16;99216.94;;;13.33;54.94
51289;BME280;37372;52.294;5.152;2023-03-13T14:35:46;99219.94;;;13.37;55.46
51289;BME280;37372;52.294;5.152;2023-03-13T14:38:20;99202.84;;;13.40;55.55
51289;BME280;37372;52.294;5.152;2023-03-13T14:40:49;99216.34;;;13.36;55.82
51289;BME280;37372;52.294;5.152;2023-03-13T14:43:30;99211.03;;;13.45;56.15
51289;BME280;37372;52.294;5.152;2023-03-13T14:45:57;99216.84;;;13.43;56.33
51289;BME280;37372;52.294;5.152;2023-03-13T14:48:29;99229.78;;;13.43;56.07
51289;BME280;37372;52.294;5.152;2023-03-13T14:51:14;99211.38;;;13.38;56.05
51289;BME280;37372;52.294;5.152;2023-03-13T14:54:03;99211.09;;;13.40;56.36
51289;BME280;37372;52.294;5.152;2023-03-13T14:59:11;99194.38;;;13.31;56.60
51289;BME280;37372;52.294;5.152;2023-03-13T15:01:41;99191.09;;;13.29;56.51
51289;BME280;37372;52.294;5.152;2023-03-13T15:04:10;99190.31;;;13.23;56.95
51289;BME280;37372;52.294;5.152;2023-03-13T15:06:39;99179.81;;;13.25;56.82
51289;BME280;37372;52.294;5.152;2023-03-13T15:09:16;99181.22;;;13.23;56.35
51289;BME280;37372;52.294;5.152;2023-03-13T15:12:10;99184.28;;;13.21;55.75